Bridgeport, CA (93517)

8:48 AM PDT on May 06, 2015 (GMT -0700)
RAWS | | Change Station
CLOSE
Current Station
Personal Weather Station
Location: Bridgeport, CA
Elevation: 6649 ft
Nearby Weather Stations

Elev 6649 ft 38.27 °N, 119.29 °W | Updated 59 minutes ago

Clear
Clear
40 °F
Feels Like 40 °F
N
2
Wind Variable Wind from ESE
Gusts 5.0 mph

Today
High -- | Low -- °F
--% Chance of Precip.
Yesterday
High -- | Low -- °F
Precip. -- in
5:55 AM 7:52 PM
Waning Gibbous, 93% visible
Pressure 29.76 in
Visibility 10.0 miles
Clouds Clear
Windchill 40 °F
Dew Point 23 °F
Humidity 50%
Rainfall in
Snow Depth Not available.
UV 2 out of 12
Pollen 8.00 out of 12
Air Quality Not available.
Flu Activity Sporadic
METAR KBAN 061452Z AUTO 00000KT 10SM CLR 04/M04 A2987 RMK AO2 SLP077 T00391044 56007

More Conditions Fewer Conditions

Pressure 29.76 in
Visibility 10.0 miles
Clouds Clear
Windchill 40 °F
Dew Point 23 °F
Humidity 50%
Rainfall in
Snow Depth Not available.
UV 2 out of 12
Pollen 8.00 out of 12
Air Quality Not available.
Flu Activity Sporadic
METAR KBAN 061452Z AUTO 00000KT 10SM CLR 04/M04 A2987 RMK AO2 SLP077 T00391044 56007

More Conditions Fewer Conditions

10-Day Weather Forecast

Almanac

Astronomy

May. 06, 2015 Rise Set
Actual Time
Civil Twilight
Nautical Twilight
Astronomical Twilight
Moon
Length of Visible Light
Length of Day
Tomorrow will be .
, % of the Moon is Illuminated

Today's Extremes

State Highs State Lows

Community

WunderPhotos

Upload Photos

1,818,938 photos uploaded!

WunderBlogs® & News

Nearby

Air Quality

  Air Quality AQ Index Pollutant
Not available.

Snow Depth

Station Depth Elevation

Earthquake Activity

City Distance Mag. Time & Date
Minimum magnitude displayed is 2.5.

Coastal Water Temperatures

Place Temperature

Stations

Nearby Weather Stations

Station Location Temp. Windchill Dew Point Humidity Wind Precip. Elev Updated Type